Time;durP1;ratioP1;P1;durP2;ratioP2;P2;SDS_P1;SDS_P2;PMS_P1;PMS_P2;Temp;Humidity;BMP_temperature;BMP_pressure;BME280_temperature;BME280_humidity;BME280_pressure;Samples;Min_cycle;Max_cycle;Signal;HPM_P1;HPM_P2
2022/11/15 00:02:17;;;;;;;0.10;0.10;;;;;;;;;;5083780;28;20046;-78
2022/11/15 00:04:43;;;;;;;0.17;0.17;;;;;;;;;;5078610;28;20052;-79
2022/11/15 00:07:09;;;;;;;0.10;0.10;;;;;;;;;;5088246;28;20105;-78
2022/11/15 00:09:35;;;;;;;0.20;0.20;;;;;;;;;;5096238;28;20057;-79
2022/11/15 00:12:01;;;;;;;0.10;0.10;;;;;;;;;;5088384;28;20062;-79
2022/11/15 00:14:27;;;;;;;0.10;0.10;;;;;;;;;;5087051;28;20533;-78
2022/11/15 00:16:53;;;;;;;0.10;0.10;;;;;;;;;;5091066;28;20090;-79
2022/11/15 00:19:19;;;;;;;0.10;0.10;;;;;;;;;;5088304;28;20040;-78
2022/11/15 00:21:45;;;;;;;0.20;0.20;;;;;;;;;;5069778;28;20047;-78
2022/11/15 00:24:11;;;;;;;0.20;0.20;;;;;;;;;;5088899;28;20052;-78
2022/11/15 00:26:37;;;;;;;0.10;0.10;;;;;;;;;;5086161;28;20495;-78
2022/11/15 00:29:03;;;;;;;0.20;0.20;;;;;;;;;;5068226;28;20087;-79
2022/11/15 00:31:29;;;;;;;0.20;0.20;;;;;;;;;;5071121;28;20075;-79
2022/11/15 00:33:55;;;;;;;0.10;0.10;;;;;;;;;;5089643;28;20089;-79
2022/11/15 00:36:22;;;;;;;0.20;0.20;;;;;;;;;;5071167;28;20379;-78
2022/11/15 00:38:48;;;;;;;0.10;0.10;;;;;;;;;;5075578;28;20445;-79
2022/11/15 00:41:14;;;;;;;0.10;0.10;;;;;;;;;;5089303;28;20058;-78
2022/11/15 00:43:43;;;;;;;0.10;0.10;;;;;;;;;;5100434;28;20060;-79
2022/11/15 00:46:09;;;;;;;0.10;0.10;;;;;;;;;;5088900;28;20075;-78
2022/11/15 00:48:35;;;;;;;0.10;0.10;;;;;;;;;;5088688;28;20820;-79
2022/11/15 00:51:01;;;;;;;0.20;0.20;;;;;;;;;;5086979;28;20056;-79
2022/11/15 00:53:28;;;;;;;0.10;0.10;;;;;;;;;;5090443;28;20073;-78
2022/11/15 00:55:54;;;;;;;0.10;0.10;;;;;;;;;;5082835;28;20190;-79
2022/11/15 00:58:20;;;;;;;0.10;0.10;;;;;;;;;;5084807;28;20114;-78
2022/11/15 01:00:46;;;;;;;0.10;0.10;;;;;;;;;;5078435;28;20040;-79
2022/11/15 01:03:12;;;;;;;0.10;0.10;;;;;;;;;;5089706;28;20086;-79
2022/11/15 01:05:38;;;;;;;0.20;0.20;;;;;;;;;;5081692;28;20055;-78
2022/11/15 01:08:05;;;;;;;0.10;0.10;;;;;;;;;;5088295;28;20036;-78
2022/11/15 01:10:33;;;;;;;0.20;0.20;;;;;;;;;;5091036;28;20384;-79
2022/11/15 01:13:00;;;;;;;0.13;0.13;;;;;;;;;;5092629;28;20086;-78
2022/11/15 01:15:26;;;;;;;0.10;0.10;;;;;;;;;;5085363;28;20047;-78
2022/11/15 01:17:52;;;;;;;0.13;0.13;;;;;;;;;;5089331;28;20036;-78
2022/11/15 01:20:18;;;;;;;0.20;0.20;;;;;;;;;;5088335;28;20174;-79
2022/11/15 01:22:44;;;;;;;0.20;0.20;;;;;;;;;;5082303;28;20043;-77
2022/11/15 01:25:10;;;;;;;0.10;0.10;;;;;;;;;;5084106;28;21337;-77
2022/11/15 01:27:36;;;;;;;0.40;0.40;;;;;;;;;;5075478;28;20384;-77
2022/11/15 01:30:03;;;;;;;0.20;0.20;;;;;;;;;;5089294;28;20062;-78
2022/11/15 01:32:29;;;;;;;0.15;0.15;;;;;;;;;;5089112;28;20123;-76
2022/11/15 01:34:55;;;;;;;0.10;0.10;;;;;;;;;;5089106;28;20073;-76
2022/11/15 01:37:21;;;;;;;0.15;0.15;;;;;;;;;;5089388;28;20032;-77
2022/11/15 01:39:47;;;;;;;0.10;0.10;;;;;;;;;;5086622;28;20124;-77
2022/11/15 01:42:14;;;;;;;0.30;0.30;;;;;;;;;;5085396;28;20059;-76
2022/11/15 01:44:50;;;;;;;0.20;0.20;;;;;;;;;;5070866;28;20063;-78
2022/11/15 01:47:21;;;;;;;0.20;0.20;;;;;;;;;;5089297;28;20151;-78
2022/11/15 01:49:52;;;;;;;0.15;0.15;;;;;;;;;;5091776;28;20096;-77
2022/11/15 01:52:20;;;;;;;0.10;0.10;;;;;;;;;;5084112;28;20097;-77
2022/11/15 01:54:46;;;;;;;0.20;0.20;;;;;;;;;;5084838;28;20089;-78
2022/11/15 01:57:13;;;;;;;0.20;0.20;;;;;;;;;;5087471;28;20071;-78
2022/11/15 01:59:41;;;;;;;0.10;0.10;;;;;;;;;;5088523;28;20403;-78
2022/11/15 02:02:07;;;;;;;0.10;0.10;;;;;;;;;;5088718;28;20040;-78
2022/11/15 02:04:37;;;;;;;0.10;0.10;;;;;;;;;;5088572;28;20055;-78
2022/11/15 02:07:04;;;;;;;0.10;0.10;;;;;;;;;;5084692;28;20047;-79
2022/11/15 02:09:31;;;;;;;0.20;0.20;;;;;;;;;;5088762;28;20105;-77
2022/11/15 02:11:57;;;;;;;0.10;0.10;;;;;;;;;;5087935;28;20139;-79
2022/11/15 02:14:25;;;;;;;0.20;0.20;;;;;;;;;;5087877;28;20044;-79
2022/11/15 02:17:10;;;;;;;0.20;0.20;;;;;;;;;;5087047;28;20484;-80
2022/11/15 02:19:51;;;;;;;0.20;0.20;;;;;;;;;;5074741;28;20132;-76
2022/11/15 02:22:27;;;;;;;0.10;0.10;;;;;;;;;;5079601;28;20439;-79
2022/11/15 02:25:22;;;;;;;0.10;0.10;;;;;;;;;;5072819;28;20044;-79
2022/11/15 02:28:12;;;;;;;0.20;0.20;;;;;;;;;;5066119;28;20475;-78
2022/11/15 02:30:50;;;;;;;0.13;0.13;;;;;;;;;;5061924;28;20515;-78
2022/11/15 02:33:28;;;;;;;0.10;0.10;;;;;;;;;;5089410;28;20144;-79
2022/11/15 02:36:02;;;;;;;0.20;0.20;;;;;;;;;;5090332;28;20479;-78
2022/11/15 02:38:46;;;;;;;0.10;0.10;;;;;;;;;;5082385;28;20052;-79
2022/11/15 02:41:17;;;;;;;0.20;0.20;;;;;;;;;;5080201;28;20048;-78
2022/11/15 02:43:59;;;;;;;0.10;0.10;;;;;;;;;;5083169;28;20067;-78
2022/11/15 02:47:12;;;;;;;;;;;;;;;;;;5093063;28;20112;-79
2022/11/15 02:49:12;;;;;;;0.20;0.20;;;;;;;;;;5090138;28;20310;-78
2022/11/15 02:51:38;;;;;;;0.10;0.10;;;;;;;;;;5091118;28;20040;-78
2022/11/15 02:54:04;;;;;;;0.20;0.20;;;;;;;;;;5090050;28;20051;-79
2022/11/15 02:56:31;;;;;;;0.20;0.20;;;;;;;;;;5090298;28;20043;-78
2022/11/15 02:59:06;;;;;;;0.20;0.20;;;;;;;;;;5090496;28;20043;-78
2022/11/15 03:01:42;;;;;;;0.20;0.20;;;;;;;;;;5082952;28;20040;-77
2022/11/15 03:04:11;;;;;;;0.20;0.20;;;;;;;;;;5090972;28;20491;-78
2022/11/15 03:06:43;;;;;;;0.17;0.17;;;;;;;;;;5079458;28;20079;-79
2022/11/15 03:09:32;;;;;;;0.20;0.20;;;;;;;;;;5085289;28;20119;-78
2022/11/15 03:12:06;;;;;;;0.13;0.13;;;;;;;;;;5080026;28;20043;-78
2022/11/15 03:14:44;;;;;;;0.20;0.20;;;;;;;;;;5090290;28;20079;-78
2022/11/15 03:17:10;;;;;;;0.20;0.20;;;;;;;;;;5090649;28;20083;-78
2022/11/15 03:19:39;;;;;;;0.10;0.10;;;;;;;;;;5088440;28;20087;-78
2022/11/15 03:22:07;;;;;;;0.20;0.20;;;;;;;;;;5085246;28;20476;-77
2022/11/15 03:24:35;;;;;;;0.10;0.10;;;;;;;;;;5074524;28;20050;-78
2022/11/15 03:27:02;;;;;;;0.10;0.10;;;;;;;;;;5075233;28;20073;-78
2022/11/15 03:29:33;;;;;;;0.17;0.17;;;;;;;;;;5090323;28;20121;-78
2022/11/15 03:32:03;;;;;;;0.10;0.10;;;;;;;;;;5090406;28;20056;-78
2022/11/15 03:34:32;;;;;;;0.10;0.10;;;;;;;;;;5089577;28;20505;-78
2022/11/15 03:36:58;;;;;;;0.20;0.20;;;;;;;;;;5080624;28;20143;-78
2022/11/15 03:39:24;;;;;;;0.20;0.20;;;;;;;;;;5079666;28;20123;-79
2022/11/15 03:41:58;;;;;;;0.10;0.10;;;;;;;;;;5085904;28;20070;-77
2022/11/15 03:44:44;;;;;;;0.20;0.20;;;;;;;;;;5078695;28;20706;-77
2022/11/15 03:47:16;;;;;;;0.20;0.20;;;;;;;;;;5073985;28;20132;-78
2022/11/15 03:49:47;;;;;;;0.10;0.10;;;;;;;;;;5088861;28;20040;-79
2022/11/15 03:52:13;;;;;;;0.20;0.20;;;;;;;;;;5087287;28;20666;-78
2022/11/15 03:54:48;;;;;;;0.20;0.20;;;;;;;;;;5090533;28;20487;-78
2022/11/15 03:57:14;;;;;;;0.20;0.20;;;;;;;;;;5077532;28;20067;-78
2022/11/15 03:59:40;;;;;;;0.10;0.10;;;;;;;;;;5086196;28;20080;-78
2022/11/15 04:02:06;;;;;;;0.57;0.43;;;;;;;;;;5081567;28;20483;-78
2022/11/15 04:04:32;;;;;;;0.10;0.10;;;;;;;;;;5078034;28;20048;-78
2022/11/15 04:06:58;;;;;;;0.10;0.10;;;;;;;;;;5092076;28;20040;-78
2022/11/15 04:09:24;;;;;;;0.10;0.10;;;;;;;;;;5093581;28;20413;-78
2022/11/15 04:11:50;;;;;;;0.17;0.17;;;;;;;;;;5089007;28;20052;-78
2022/11/15 04:14:21;;;;;;;0.10;0.10;;;;;;;;;;5087019;28;20044;-78
2022/11/15 04:16:47;;;;;;;0.10;0.10;;;;;;;;;;5088948;28;20085;-78
2022/11/15 04:24:43;;;;;;;0.10;0.10;;;;;;;;;;5083417;28;20044;-78
2022/11/15 04:27:09;;;;;;;0.20;0.20;;;;;;;;;;5082186;28;20048;-78
2022/11/15 04:29:35;;;;;;;0.20;0.20;;;;;;;;;;5088093;28;20044;-77
2022/11/15 04:32:05;;;;;;;0.20;0.20;;;;;;;;;;5088234;28;20062;-77
2022/11/15 04:34:31;;;;;;;0.20;0.20;;;;;;;;;;5087886;28;20044;-78
2022/11/15 04:37:12;;;;;;;0.10;0.10;;;;;;;;;;5099050;28;20147;-78
2022/11/15 04:39:39;;;;;;;0.20;0.20;;;;;;;;;;5092964;28;20047;-76
2022/11/15 04:42:05;;;;;;;0.20;0.20;;;;;;;;;;5087848;28;20065;-76
2022/11/15 04:44:34;;;;;;;0.20;0.20;;;;;;;;;;5088448;28;20048;-77
2022/11/15 04:47:00;;;;;;;0.20;0.20;;;;;;;;;;5087523;28;20375;-77
2022/11/15 04:49:26;;;;;;;0.10;0.10;;;;;;;;;;5085094;28;20093;-77
2022/11/15 04:51:52;;;;;;;0.10;0.10;;;;;;;;;;5088300;28;20604;-77
2022/11/15 04:54:18;;;;;;;0.20;0.20;;;;;;;;;;5077166;28;20119;-76
2022/11/15 04:56:44;;;;;;;0.10;0.10;;;;;;;;;;5084895;28;20134;-77
2022/11/15 04:59:10;;;;;;;0.15;0.15;;;;;;;;;;5085846;28;20072;-76
2022/11/15 05:01:39;;;;;;;0.20;0.20;;;;;;;;;;5079008;28;20056;-77
2022/11/15 05:04:20;;;;;;;0.20;0.20;;;;;;;;;;5072787;28;20146;-77
2022/11/15 05:06:47;;;;;;;0.13;0.13;;;;;;;;;;5083323;28;20041;-77
2022/11/15 05:09:16;;;;;;;0.20;0.20;;;;;;;;;;5087468;28;20052;-77
2022/11/15 05:11:42;;;;;;;0.10;0.10;;;;;;;;;;5094454;28;20127;-77
2022/11/15 05:14:08;;;;;;;0.20;0.20;;;;;;;;;;5089683;28;20044;-77
2022/11/15 05:16:34;;;;;;;0.20;0.20;;;;;;;;;;5088410;28;20051;-77
2022/11/15 05:19:00;;;;;;;0.10;0.10;;;;;;;;;;5088507;28;20233;-77
2022/11/15 05:21:26;;;;;;;0.20;0.20;;;;;;;;;;5079843;28;20071;-77
2022/11/15 05:23:52;;;;;;;0.20;0.20;;;;;;;;;;5071195;28;20036;-77
2022/11/15 05:26:18;;;;;;;0.10;0.10;;;;;;;;;;5081987;28;20041;-77
2022/11/15 05:28:45;;;;;;;0.10;0.10;;;;;;;;;;5068546;28;20126;-76
2022/11/15 05:31:12;;;;;;;0.10;0.10;;;;;;;;;;5081476;28;20060;-77
2022/11/15 05:33:39;;;;;;;0.10;0.10;;;;;;;;;;5085043;28;20051;-77
2022/11/15 05:36:07;;;;;;;0.20;0.20;;;;;;;;;;5074257;28;20040;-77
2022/11/15 05:38:33;;;;;;;0.10;0.10;;;;;;;;;;5081294;28;20077;-75
2022/11/15 05:41:00;;;;;;;0.20;0.20;;;;;;;;;;5070355;28;20547;-77
2022/11/15 05:43:26;;;;;;;0.10;0.10;;;;;;;;;;5076165;28;20387;-77
2022/11/15 05:45:52;;;;;;;0.10;0.10;;;;;;;;;;5085772;28;20047;-77
2022/11/15 05:48:18;;;;;;;0.10;0.10;;;;;;;;;;5089711;28;20036;-77
2022/11/15 05:50:46;;;;;;;0.20;0.20;;;;;;;;;;5087210;28;20127;-77
2022/11/15 05:53:13;;;;;;;0.13;0.13;;;;;;;;;;5088093;28;20044;-77
2022/11/15 05:55:40;;;;;;;0.10;0.10;;;;;;;;;;5089770;28;20048;-77
2022/11/15 05:58:06;;;;;;;0.10;0.10;;;;;;;;;;5080479;28;20029;-77
2022/11/15 06:00:32;;;;;;;0.10;0.10;;;;;;;;;;5084315;28;20078;-77
2022/11/15 06:02:58;;;;;;;0.15;0.15;;;;;;;;;;5074861;28;20040;-77
2022/11/15 06:05:27;;;;;;;0.10;0.10;;;;;;;;;;5080424;28;20040;-77
2022/11/15 06:07:53;;;;;;;0.20;0.20;;;;;;;;;;5070831;28;20047;-77
2022/11/15 06:10:19;;;;;;;0.20;0.20;;;;;;;;;;5082973;28;20044;-77
2022/11/15 06:12:45;;;;;;;0.10;0.10;;;;;;;;;;5079086;28;20051;-77
2022/11/15 06:15:11;;;;;;;0.10;0.10;;;;;;;;;;5091750;28;20092;-77
2022/11/15 06:17:37;;;;;;;0.10;0.10;;;;;;;;;;5092157;28;20065;-76
2022/11/15 06:20:03;;;;;;;0.10;0.10;;;;;;;;;;5095554;28;20704;-76
2022/11/15 06:22:29;;;;;;;0.10;0.10;;;;;;;;;;5092298;28;20044;-77
2022/11/15 06:24:55;;;;;;;0.20;0.20;;;;;;;;;;5095008;28;20438;-77
2022/11/15 06:27:21;;;;;;;0.20;0.20;;;;;;;;;;5081574;28;20064;-77
2022/11/15 06:29:47;;;;;;;0.10;0.10;;;;;;;;;;5089464;28;20083;-77
2022/11/15 06:32:13;;;;;;;0.20;0.20;;;;;;;;;;5092802;28;20040;-77
2022/11/15 06:34:39;;;;;;;0.20;0.20;;;;;;;;;;5089756;28;20040;-77
2022/11/15 06:37:05;;;;;;;0.17;0.17;;;;;;;;;;5090879;28;20036;-77
2022/11/15 06:39:31;;;;;;;0.20;0.20;;;;;;;;;;5092501;28;20073;-77
2022/11/15 06:41:57;;;;;;;0.20;0.20;;;;;;;;;;5091200;28;20616;-77
2022/11/15 06:44:23;;;;;;;0.10;0.10;;;;;;;;;;5090504;28;20044;-77
2022/11/15 06:46:49;;;;;;;0.20;0.20;;;;;;;;;;5091229;28;20055;-77
2022/11/15 06:49:16;;;;;;;0.17;0.17;;;;;;;;;;5090300;28;20044;-77
2022/11/15 06:51:42;;;;;;;0.20;0.20;;;;;;;;;;5091220;28;20162;-77
2022/11/15 06:54:08;;;;;;;0.20;0.20;;;;;;;;;;5088894;28;20040;-77
2022/11/15 06:56:34;;;;;;;0.20;0.20;;;;;;;;;;5092411;28;20044;-77
2022/11/15 06:59:00;;;;;;;0.20;0.20;;;;;;;;;;5087864;28;20157;-77
2022/11/15 07:01:26;;;;;;;0.20;0.20;;;;;;;;;;5089782;28;20051;-77
2022/11/15 07:03:52;;;;;;;0.20;0.20;;;;;;;;;;5103611;28;20040;-77
2022/11/15 07:06:18;;;;;;;0.10;0.10;;;;;;;;;;5090141;28;20036;-77
2022/11/15 07:08:45;;;;;;;0.10;0.10;;;;;;;;;;5091720;28;20036;-78
2022/11/15 07:11:11;;;;;;;0.20;0.20;;;;;;;;;;5086969;28;20063;-77
2022/11/15 07:13:37;;;;;;;0.20;0.20;;;;;;;;;;5077515;28;20040;-77
2022/11/15 07:16:07;;;;;;;0.10;0.10;;;;;;;;;;5087241;28;20407;-77
2022/11/15 07:18:45;;;;;;;0.20;0.20;;;;;;;;;;5087814;28;20499;-73
2022/11/15 07:21:12;;;;;;;0.20;0.20;;;;;;;;;;5075974;28;20423;-73
2022/11/15 07:23:38;;;;;;;0.10;0.10;;;;;;;;;;5078224;28;20402;-73
2022/11/15 07:26:04;;;;;;;0.17;0.17;;;;;;;;;;5082705;28;20689;-73
2022/11/15 07:28:30;;;;;;;0.10;0.10;;;;;;;;;;5082797;28;20044;-73
2022/11/15 07:30:56;;;;;;;0.20;0.20;;;;;;;;;;5094446;28;20046;-73
2022/11/15 07:33:23;;;;;;;0.10;0.10;;;;;;;;;;5081041;28;20496;-73
2022/11/15 07:35:49;;;;;;;0.10;0.10;;;;;;;;;;5093612;28;20043;-72
2022/11/15 07:38:19;;;;;;;0.20;0.20;;;;;;;;;;5090385;28;20059;-73
2022/11/15 07:40:45;;;;;;;0.17;0.17;;;;;;;;;;5096496;28;20047;-73
2022/11/15 07:43:14;;;;;;;0.10;0.10;;;;;;;;;;5092129;28;20151;-74
2022/11/15 07:45:46;;;;;;;0.20;0.20;;;;;;;;;;5090357;28;20051;-73
2022/11/15 07:48:12;;;;;;;0.15;0.15;;;;;;;;;;5095412;28;20062;-73
2022/11/15 07:50:41;;;;;;;0.20;0.20;;;;;;;;;;5093303;28;20044;-72
2022/11/15 07:53:08;;;;;;;0.10;0.10;;;;;;;;;;5089177;28;20085;-72
2022/11/15 07:55:34;;;;;;;0.10;0.10;;;;;;;;;;5076428;28;20044;-73
2022/11/15 07:58:01;;;;;;;0.10;0.10;;;;;;;;;;5070036;28;20040;-73
2022/11/15 08:00:27;;;;;;;0.10;0.10;;;;;;;;;;5089415;28;20044;-72
2022/11/15 08:02:53;;;;;;;0.10;0.10;;;;;;;;;;5087531;28;20438;-73
2022/11/15 08:05:22;;;;;;;0.10;0.10;;;;;;;;;;5099745;28;20057;-73
2022/11/15 08:07:48;;;;;;;0.10;0.10;;;;;;;;;;5080136;28;20047;-73
2022/11/15 08:10:16;;;;;;;0.20;0.20;;;;;;;;;;5080936;28;20052;-73
2022/11/15 08:12:42;;;;;;;0.10;0.10;;;;;;;;;;5093296;28;20036;-73
2022/11/15 08:15:08;;;;;;;0.10;0.10;;;;;;;;;;5093710;28;20093;-73
2022/11/15 08:17:35;;;;;;;0.10;0.10;;;;;;;;;;5091428;28;20046;-73
2022/11/15 08:20:01;;;;;;;0.10;0.10;;;;;;;;;;5089477;28;20491;-73
2022/11/15 08:22:27;;;;;;;0.10;0.10;;;;;;;;;;5082690;28;20044;-74
2022/11/15 08:24:53;;;;;;;0.20;0.20;;;;;;;;;;5091174;28;20047;-73
2022/11/15 08:27:19;;;;;;;0.20;0.20;;;;;;;;;;5074783;28;20083;-73
2022/11/15 08:29:46;;;;;;;0.17;0.17;;;;;;;;;;5085103;28;20145;-73
2022/11/15 08:32:12;;;;;;;0.20;0.20;;;;;;;;;;5098349;28;20516;-72
2022/11/15 08:34:38;;;;;;;0.10;0.10;;;10.90;99.90;;;;;;5094491;28;20635;-73
2022/11/15 08:37:05;;;;;;;0.20;0.20;;;10.70;99.90;;;;;;5084850;28;20115;-73
2022/11/15 08:39:30;;;;;;;0.10;0.10;;;10.70;99.90;;;;;;5106116;28;20052;-73
2022/11/15 08:41:56;;;;;;;0.20;0.20;;;10.70;99.90;;;;;;5086470;28;20051;-73
2022/11/15 08:44:23;;;;;;;0.10;0.10;;;10.90;99.90;;;;;;5083645;28;20044;-73
2022/11/15 08:46:49;;;;;;;0.20;0.20;;;10.80;99.90;;;;;;5074617;28;20036;-73
2022/11/15 08:49:15;;;;;;;0.10;0.10;;;10.90;99.90;;;;;;5080840;28;20047;-73
2022/11/15 08:51:40;;;;;;;0.10;0.10;;;10.80;99.90;;;;;;5073246;28;20431;-73
2022/11/15 08:54:06;;;;;;;0.10;0.10;;;10.90;99.90;;;;;;5077578;28;20036;-73
2022/11/15 08:56:32;;;;;;;0.20;0.20;;;10.90;99.90;;;;;;5075965;28;20071;-74
2022/11/15 08:58:57;;;;;;;0.20;0.20;;;11.00;99.90;;;;;;5074259;28;20057;-74
2022/11/15 09:01:23;;;;;;;0.10;0.10;;;11.00;99.90;;;;;;5076383;28;20428;-74
2022/11/15 09:03:49;;;;;;;0.10;0.10;;;11.00;99.90;;;;;;5079955;28;20049;-74
2022/11/15 09:06:14;;;;;;;0.15;0.15;;;11.10;99.90;;;;;;5081225;28;20071;-74
2022/11/15 09:08:43;;;;;;;0.20;0.20;;;11.00;99.90;;;;;;5081122;28;20051;-74
2022/11/15 09:11:10;;;;;;;0.10;0.10;;;11.10;99.90;;;;;;5078876;28;20430;-73
2022/11/15 09:13:39;;;;;;;0.10;0.10;;;11.10;99.90;;;;;;5085070;28;20075;-73
2022/11/15 09:16:05;;;;;;;0.10;0.10;;;11.20;99.90;;;;;;5076582;28;20502;-74
2022/11/15 09:18:31;;;;;;;0.20;0.20;;;11.20;99.90;;;;;;5091247;28;20044;-74
2022/11/15 09:20:58;;;;;;;0.20;0.20;;;11.30;99.90;;;;;;5103028;28;20457;-73
2022/11/15 09:23:24;;;;;;;0.10;0.10;;;11.30;99.90;;;;;;5086622;28;20043;-73
2022/11/15 09:25:50;;;;;;;0.10;0.10;;;11.40;99.90;;;;;;5109449;28;20051;-74
2022/11/15 09:28:15;;;;;;;0.10;0.10;;;11.70;99.90;;;;;;5089877;28;20101;-74
2022/11/15 09:30:41;;;;;;;0.10;0.10;;;11.40;99.90;;;;;;5078116;28;20059;-73
2022/11/15 09:33:11;;;;;;;0.10;0.10;;;11.60;99.90;;;;;;5088250;28;20052;-73
2022/11/15 09:35:37;;;;;;;0.10;0.10;;;11.40;99.90;;;;;;5090679;28;20157;-73
2022/11/15 09:38:04;;;;;;;0.10;0.10;;;11.50;99.90;;;;;;5074763;28;20036;-74
2022/11/15 09:40:32;;;;;;;0.10;0.10;;;11.50;99.90;;;;;;5105851;27;20479;-73
2022/11/15 09:43:09;;;;;;;0.20;0.20;;;11.50;99.90;;;;;;5077453;28;20112;-73
2022/11/15 09:46:09;;;;;;;0.10;0.10;;;11.60;99.90;;;;;;5080887;28;20117;-73
2022/11/15 09:48:52;;;;;;;0.10;0.10;;;11.60;99.90;;;;;;5076233;28;20127;-73
2022/11/15 09:51:46;;;;;;;0.10;0.10;;;11.60;99.90;;;;;;5074300;28;20045;-72
2022/11/15 09:54:27;;;;;;;0.10;0.10;;;11.70;99.90;;;;;;5077798;28;20514;-73
2022/11/15 09:56:55;;;;;;;0.57;0.57;;;11.70;99.90;;;;;;5082627;28;20070;-73
2022/11/15 09:59:41;;;;;;;0.10;0.10;;;11.80;99.90;;;;;;5092423;28;20032;-74
2022/11/15 10:02:13;;;;;;;0.20;0.20;;;11.70;99.90;;;;;;5087003;28;20044;-74
2022/11/15 10:04:40;;;;;;;;;;;11.80;99.90;;;;;;5081008;28;20562;-74
2022/11/15 10:07:11;;;;;;;0.20;0.20;;;11.90;99.90;;;;;;5089383;28;20010;-73
2022/11/15 10:09:44;;;;;;;0.10;0.10;;;11.80;99.90;;;;;;5085030;28;20101;-74
2022/11/15 10:12:13;;;;;;;0.13;0.13;;;11.80;99.90;;;;;;5086793;28;20083;-74
2022/11/15 10:14:40;;;;;;;0.10;0.10;;;11.90;99.90;;;;;;5087043;28;20048;-73
2022/11/15 10:17:27;;;;;;;0.10;0.10;;;11.90;99.90;;;;;;5089274;28;20036;-74
2022/11/15 10:20:05;;;;;;;0.10;0.10;;;11.90;99.90;;;;;;5088740;28;20050;-74
2022/11/15 10:22:47;;;;;;;0.10;0.10;;;11.90;99.90;;;;;;5067727;28;20060;-74
2022/11/15 10:25:19;;;;;;;0.10;0.10;;;11.90;99.90;;;;;;5083765;28;20036;-73
2022/11/15 10:28:11;;;;;;;0.10;0.10;;;12.00;99.90;;;;;;5094609;28;20032;-74
2022/11/15 10:30:43;;;;;;;0.10;0.10;;;11.90;99.90;;;;;;5072987;28;20056;-73
2022/11/15 10:33:34;;;;;;;0.10;0.10;;;11.90;99.90;;;;;;5098209;28;20043;-73
2022/11/15 10:36:09;;;;;;;0.10;0.10;;;11.90;99.90;;;;;;5092559;28;20059;-74
2022/11/15 10:38:53;;;;;;;0.10;0.10;;;11.90;99.90;;;;;;5084988;28;20094;-73
2022/11/15 10:41:26;;;;;;;0.10;0.10;;;12.00;99.90;;;;;;5086034;28;20055;-74
2022/11/15 10:44:07;;;;;;;0.10;0.10;;;12.00;99.90;;;;;;5086057;28;20084;-74
2022/11/15 10:46:38;;;;;;;0.10;0.10;;;12.00;99.90;;;;;;5085649;28;20041;-73
2022/11/15 10:49:28;;;;;;;0.20;0.20;;;12.00;99.90;;;;;;5080394;28;20040;-73
2022/11/15 10:52:01;;;;;;;0.10;0.10;;;12.10;99.90;;;;;;5084738;28;20034;-73
2022/11/15 10:55:21;;;;;;;0.20;0.20;;;12.10;99.90;;;;;;5076707;28;20060;-73
2022/11/15 10:57:56;;;;;;;0.10;0.10;;;12.10;99.90;;;;;;5094043;28;20388;-73
2022/11/15 11:00:22;;;;;;;0.10;0.10;;;12.10;99.90;;;;;;5083568;28;20028;-74
2022/11/15 11:03:04;;;;;;;0.10;0.10;;;12.10;99.90;;;;;;5092073;28;20034;-75
2022/11/15 11:05:36;;;;;;;0.20;0.20;;;12.10;99.90;;;;;;5091240;28;20123;-73
2022/11/15 11:08:21;;;;;;;0.10;0.10;;;12.20;99.90;;;;;;5092039;28;20048;-73
2022/11/15 11:10:58;;;;;;;0.10;0.10;;;12.20;99.90;;;;;;5093242;28;20076;-73
2022/11/15 11:13:25;;;;;;;0.52;0.43;;;12.20;99.90;;;;;;5090708;28;20133;-73
2022/11/15 11:16:13;;;;;;;0.10;0.10;;;12.20;99.90;;;;;;5090687;28;20063;-74
2022/11/15 11:19:06;;;;;;;0.20;0.20;;;12.20;99.90;;;;;;5079574;28;20067;-73
2022/11/15 11:22:02;;;;;;;0.20;0.20;;;12.20;99.90;;;;;;5089705;28;20044;-73
2022/11/15 11:24:34;;;;;;;0.17;0.17;;;12.20;99.90;;;;;;5072114;28;20052;-73
2022/11/15 11:27:18;;;;;;;0.20;0.20;;;12.20;99.90;;;;;;5072287;28;20094;-74
2022/11/15 11:30:08;;;;;;;0.10;0.10;;;12.20;99.90;;;;;;5069784;28;20098;-73
2022/11/15 11:33:12;;;;;;;0.20;0.20;;;12.20;99.90;;;;;;5075329;28;20056;-73
2022/11/15 11:35:52;;;;;;;0.10;0.10;;;12.30;99.90;;;;;;5071986;28;20210;-73
2022/11/15 11:38:50;;;;;;;0.10;0.10;;;12.30;99.90;;;;;;5086041;28;20050;-74
2022/11/15 11:41:18;;;;;;;0.10;0.10;;;12.40;99.90;;;;;;5092667;28;20040;-73
2022/11/15 11:43:56;;;;;;;0.17;0.17;;;12.40;99.90;;;;;;5090416;28;20075;-73
2022/11/15 11:46:42;;;;;;;0.13;0.13;;;12.50;99.90;;;;;;5092300;28;20050;-73
2022/11/15 11:49:21;;;;;;;0.10;0.10;;;12.50;99.90;;;;;;5084633;28;20090;-73
2022/11/15 11:52:01;;;;;;;0.10;0.10;;;12.60;99.90;;;;;;5072861;28;20036;-73
2022/11/15 11:54:37;;;;;;;0.20;0.20;;;12.70;99.90;;;;;;5090878;28;20054;-74
2022/11/15 11:57:42;;;;;;;0.20;0.20;;;12.80;99.90;;;;;;5090082;28;20067;-74
2022/11/15 12:00:22;;;;;;;0.10;0.10;;;12.90;99.90;;;;;;5036104;28;20091;-74
2022/11/15 12:02:50;;;;;;;0.20;0.20;;;13.20;99.90;;;;;;5091954;28;20054;-73
2022/11/15 12:05:27;;;;;;;0.20;0.20;;;13.30;99.90;;;;;;5089915;28;20044;-73
2022/11/15 12:07:59;;;;;;;0.20;0.20;;;13.30;99.90;;;;;;5090480;28;20044;-73
2022/11/15 12:10:30;;;;;;;0.15;0.15;;;13.50;99.90;;;;;;5091627;28;20403;-74
2022/11/15 12:13:10;;;;;;;0.10;0.10;;;13.40;99.90;;;;;;5091487;28;20052;-74
2022/11/15 12:15:45;;;;;;;0.45;0.45;;;13.40;99.90;;;;;;5090835;28;20080;-73
2022/11/15 12:18:16;;;;;;;0.10;0.10;;;13.50;99.90;;;;;;5089836;28;20040;-73
2022/11/15 12:21:03;;;;;;;0.20;0.20;;;13.50;99.90;;;;;;5090152;28;20052;-73
2022/11/15 12:23:38;;;;;;;0.10;0.10;;;13.50;99.90;;;;;;5089602;28;20051;-74
2022/11/15 12:26:07;;;;;;;0.20;0.20;;;13.60;99.90;;;;;;5082955;28;20044;-74
2022/11/15 12:28:53;;;;;;;0.10;0.10;;;13.60;99.90;;;;;;5082797;28;20058;-73
2022/11/15 12:31:40;;;;;;;0.20;0.20;;;13.60;99.90;;;;;;5071849;28;20053;-74
2022/11/15 12:34:18;;;;;;;0.20;0.20;;;13.60;99.90;;;;;;5073524;28;20093;-74
2022/11/15 12:36:44;;;;;;;0.10;0.10;;;13.70;99.90;;;;;;5091058;28;20487;-73
2022/11/15 12:39:12;;;;;;;0.20;0.20;;;13.70;99.90;;;;;;5078038;28;20045;-73
2022/11/15 12:41:43;;;;;;;0.10;0.10;;;13.60;99.90;;;;;;5086049;28;20071;-74
2022/11/15 12:44:32;;;;;;;0.15;0.15;;;13.90;99.90;;;;;;5086003;28;20047;-73
2022/11/15 12:46:59;;;;;;;0.20;0.20;;;13.60;99.90;;;;;;5068424;28;20048;-74
2022/11/15 12:49:28;;;;;;;0.17;0.17;;;13.70;99.90;;;;;;5090894;28;20048;-74
2022/11/15 12:51:56;;;;;;;0.10;0.10;;;14.20;99.90;;;;;;5088786;28;20071;-74
2022/11/15 12:54:22;;;;;;;0.20;0.20;;;14.10;99.90;;;;;;5088754;28;20368;-74
2022/11/15 12:57:03;;;;;;;0.20;0.20;;;13.80;99.90;;;;;;5088666;28;20039;-73
2022/11/15 12:59:49;;;;;;;0.10;0.10;;;13.50;99.90;;;;;;5088220;28;20056;-74
2022/11/15 13:02:24;;;;;;;0.20;0.20;;;13.50;99.90;;;;;;5087337;28;20314;-73
2022/11/15 13:04:51;;;;;;;0.20;0.20;;;13.50;99.90;;;;;;5089332;28;20100;-74
2022/11/15 13:07:56;;;;;;;0.15;0.15;;;13.50;99.90;;;;;;5088157;28;20044;-74
2022/11/15 13:10:32;;;;;;;0.20;0.20;;;13.40;99.90;;;;;;5027031;28;20048;-73
2022/11/15 13:13:08;;;;;;;0.20;0.20;;;13.40;99.90;;;;;;5081188;28;20072;-74
2022/11/15 13:15:55;;;;;;;0.10;0.10;;;13.40;99.90;;;;;;5088584;28;20075;-74
2022/11/15 13:18:32;;;;;;;0.13;0.13;;;13.40;99.90;;;;;;5070574;28;20036;-74
2022/11/15 13:20:58;;;;;;;0.20;0.20;;;13.40;99.90;;;;;;5081051;28;20403;-74
2022/11/15 13:23:24;;;;;;;0.20;0.20;;;13.50;99.90;;;;;;5088402;28;20040;-74
2022/11/15 13:25:59;;;;;;;0.10;0.10;;;13.60;99.90;;;;;;5088877;28;20491;-74
2022/11/15 13:28:36;;;;;;;0.20;0.20;;;13.50;99.90;;;;;;5083681;28;20036;-74
2022/11/15 13:31:23;;;;;;;0.20;0.20;;;13.60;99.90;;;;;;5083130;27;20044;-75
2022/11/15 13:33:48;;;;;;;0.20;0.20;;;13.50;99.90;;;;;;5072813;28;20044;-74
2022/11/15 13:36:25;;;;;;;0.10;0.10;;;13.50;99.90;;;;;;5089452;28;20097;-74
2022/11/15 13:39:03;;;;;;;0.20;0.20;;;13.60;99.90;;;;;;5090238;28;20484;-74
2022/11/15 13:41:31;;;;;;;0.10;0.10;;;13.50;99.90;;;;;;5090335;28;20042;-73
2022/11/15 13:43:58;;;;;;;0.10;0.10;;;13.40;99.90;;;;;;5088259;28;20070;-74
2022/11/15 13:46:27;;;;;;;0.15;0.15;;;13.70;99.90;;;;;;5086358;28;20130;-73
2022/11/15 13:48:59;;;;;;;0.10;0.10;;;13.70;99.90;;;;;;5087438;28;20116;-73
2022/11/15 13:51:40;;;;;;;0.20;0.20;;;13.40;99.90;;;;;;5089980;28;20093;-73
2022/11/15 13:54:27;;;;;;;0.10;0.10;;;13.30;99.90;;;;;;5088720;28;20081;-74
2022/11/15 13:56:58;;;;;;;0.20;0.20;;;13.30;99.90;;;;;;5088859;28;20341;-73
2022/11/15 13:59:29;;;;;;;0.10;0.10;;;13.30;99.90;;;;;;5085447;28;20048;-73
2022/11/15 14:01:58;;;;;;;0.20;0.20;;;13.30;99.90;;;;;;5089874;28;20550;-73
2022/11/15 14:04:26;;;;;;;0.10;0.10;;;13.30;99.90;;;;;;5084831;28;20051;-73
2022/11/15 14:06:56;;;;;;;0.20;0.20;;;13.30;99.90;;;;;;5089762;28;20127;-73
2022/11/15 14:09:35;;;;;;;0.20;0.20;;;13.40;99.90;;;;;;5088024;28;20115;-73
2022/11/15 14:12:25;;;;;;;0.20;0.20;;;13.20;99.90;;;;;;5084612;28;20488;-73
2022/11/15 14:14:51;;;;;;;0.20;0.20;;;13.30;99.90;;;;;;5082655;28;20037;-73
2022/11/15 14:17:29;;;;;;;0.20;0.20;;;13.20;99.90;;;;;;5081943;28;20044;-74
2022/11/15 14:19:55;;;;;;;0.20;0.20;;;13.20;99.90;;;;;;5086830;28;20044;-73
2022/11/15 14:22:29;;;;;;;0.15;0.15;;;13.10;99.90;;;;;;5092128;28;20051;-73